Time;durP1;ratioP1;P1;durP2;ratioP2;P2;SDS_P1;SDS_P2;PMS_P1;PMS_P2;Temp;Humidity;BMP_temperature;BMP_pressure;BME280_temperature;BME280_humidity;BME280_pressure;Samples;Min_cycle;Max_cycle;Signal;HPM_P1;HPM_P2
2023/09/12 00:00:23;;;;;;;8.35;5.57;;;25.10;99.90;;;;;;5055327;28;20165;-68
2023/09/12 00:02:51;;;;;;;6.47;5.50;;;25.10;99.90;;;;;;5056031;28;20423;-67
2023/09/12 00:05:19;;;;;;;6.13;5.03;;;25.10;99.90;;;;;;5055386;28;20173;-68
2023/09/12 00:07:44;;;;;;;6.30;4.60;;;25.00;99.90;;;;;;5050203;28;20208;-68
2023/09/12 00:10:10;;;;;;;6.32;4.43;;;25.00;99.90;;;;;;5051170;28;20181;-69
2023/09/12 00:12:36;;;;;;;6.75;4.82;;;24.90;99.90;;;;;;5050736;28;20202;-68
2023/09/12 00:15:04;;;;;;;6.10;4.88;;;24.90;99.90;;;;;;5043884;28;20240;-67
2023/09/12 00:17:32;;;;;;;5.72;4.72;;;24.90;99.90;;;;;;5045374;28;20268;-67
2023/09/12 00:19:58;;;;;;;7.07;4.55;;;24.90;99.90;;;;;;5060790;28;20213;-66
2023/09/12 00:22:25;;;;;;;5.68;4.53;;;24.80;99.90;;;;;;5048147;28;20263;-66
2023/09/12 00:24:53;;;;;;;6.55;4.50;;;24.80;99.90;;;;;;5048552;28;20181;-67
2023/09/12 00:27:19;;;;;;;4.95;4.00;;;24.80;99.90;;;;;;5044297;28;20300;-66
2023/09/12 00:29:44;;;;;;;6.82;4.00;;;24.70;99.90;;;;;;5043456;28;20300;-67
2023/09/12 00:32:10;;;;;;;6.05;3.92;;;24.70;99.90;;;;;;5041797;28;20181;-67
2023/09/12 00:34:38;;;;;;;7.78;5.00;;;24.70;99.90;;;;;;5040754;28;20269;-67
2023/09/12 00:37:09;;;;;;;6.07;4.05;;;24.70;99.90;;;;;;5046983;28;20193;-67
2023/09/12 00:39:38;;;;;;;4.90;3.88;;;24.70;99.90;;;;;;5040879;28;20224;-66
2023/09/12 00:42:07;;;;;;;4.72;3.75;;;24.60;99.90;;;;;;5061691;28;20185;-67
2023/09/12 00:44:33;;;;;;;6.40;3.92;;;24.60;99.90;;;;;;5043006;28;20256;-67
2023/09/12 00:47:00;;;;;;;4.82;3.30;;;24.60;99.90;;;;;;5040429;28;20256;-67
2023/09/12 00:49:27;;;;;;;4.95;3.90;;;24.50;99.90;;;;;;5050241;28;20370;-68
2023/09/12 00:51:54;;;;;;;6.40;4.28;;;24.50;99.90;;;;;;5042643;28;20284;-67
2023/09/12 00:54:20;;;;;;;5.20;3.55;;;24.40;99.90;;;;;;5039960;28;20251;-65
2023/09/12 00:56:46;;;;;;;4.88;3.75;;;24.40;99.90;;;;;;5042313;28;20181;-67
2023/09/12 00:59:13;;;;;;;5.32;3.75;;;24.30;99.90;;;;;;5042140;28;20213;-67
2023/09/12 01:01:38;;;;;;;5.20;3.70;;;24.30;99.90;;;;;;5041369;28;20177;-68
2023/09/12 01:04:04;;;;;;;4.90;3.70;;;24.30;99.90;;;;;;5046559;28;20228;-67
2023/09/12 01:06:33;;;;;;;5.07;3.85;;;24.20;99.90;;;;;;5040099;28;20412;-67
2023/09/12 01:08:59;;;;;;;4.53;3.47;;;24.20;99.90;;;;;;5041327;28;20316;-67
2023/09/12 01:11:26;;;;;;;4.47;3.88;;;24.10;99.90;;;;;;5050868;28;20177;-67
2023/09/12 01:13:52;;;;;;;3.90;3.50;;;24.10;99.90;;;;;;5043557;28;20193;-67
2023/09/12 01:16:20;;;;;;;5.22;3.50;;;24.10;99.90;;;;;;5051991;28;20177;-67
2023/09/12 01:18:46;;;;;;;4.57;3.47;;;24.00;99.90;;;;;;5043238;28;20208;-67
2023/09/12 01:21:52;;;;;;;4.30;2.95;;;24.00;99.90;;;;;;5039797;28;20194;-68
2023/09/12 01:24:42;;;;;;;5.10;3.60;;;23.90;99.90;;;;;;5039248;28;20200;-68
2023/09/12 01:27:49;;;;;;;4.15;3.42;;;23.90;99.90;;;;;;5063726;28;20201;-68
2023/09/12 01:30:22;;;;;;;5.00;3.42;;;23.70;99.90;;;;;;5023770;28;20207;-67
2023/09/12 01:32:49;;;;;;;4.70;3.30;;;23.70;99.90;;;;;;5042514;28;20184;-67
2023/09/12 01:35:15;;;;;;;3.63;3.30;;;23.60;99.90;;;;;;5042610;28;20181;-67
2023/09/12 01:37:42;;;;;;;4.90;3.00;;;23.60;99.90;;;;;;5043471;28;20236;-67
2023/09/12 01:40:10;;;;;;;4.00;3.25;;;23.50;99.90;;;;;;5043275;28;20193;-67
2023/09/12 01:42:38;;;;;;;4.22;3.10;;;23.40;99.90;;;;;;5047287;28;20205;-66
2023/09/12 01:45:05;;;;;;;6.43;3.50;;;23.40;99.90;;;;;;5045806;28;20212;-67
2023/09/12 01:47:34;;;;;;;5.47;3.38;;;23.30;99.90;;;;;;5054787;28;20181;-66
2023/09/12 01:50:04;;;;;;;3.55;3.00;;;23.30;99.90;;;;;;5058012;28;20197;-67
2023/09/12 01:52:35;;;;;;;3.92;2.97;;;23.30;99.90;;;;;;5053914;28;20231;-67
2023/09/12 01:55:01;;;;;;;4.25;3.15;;;23.20;99.90;;;;;;5057635;28;20254;-67
2023/09/12 01:57:28;;;;;;;3.70;2.97;;;23.20;99.90;;;;;;5057686;28;20256;-67
2023/09/12 01:59:56;;;;;;;4.30;3.40;;;23.20;99.90;;;;;;5058118;28;20197;-67
2023/09/12 02:02:22;;;;;;;4.38;3.25;;;23.20;99.90;;;;;;5057929;28;20334;-68
2023/09/12 02:05:12;;;;;;;5.53;3.58;;;23.20;99.90;;;;;;5057762;28;20264;-67
2023/09/12 02:07:40;;;;;;;3.50;3.05;;;23.10;99.90;;;;;;5057301;28;20215;-68
2023/09/12 02:10:06;;;;;;;4.30;3.33;;;23.10;99.90;;;;;;5057600;28;20201;-67
2023/09/12 02:12:34;;;;;;;4.43;3.42;;;23.00;99.90;;;;;;5057762;28;20177;-67
2023/09/12 02:15:00;;;;;;;3.58;3.10;;;23.00;99.90;;;;;;5051113;28;20631;-68
2023/09/12 02:17:25;;;;;;;5.05;3.38;;;23.00;99.90;;;;;;5057407;28;20615;-68
2023/09/12 02:19:51;;;;;;;3.97;3.58;;;22.90;99.90;;;;;;5053437;28;20212;-67
2023/09/12 02:22:19;;;;;;;4.03;2.95;;;22.90;99.90;;;;;;5048190;28;20178;-67
2023/09/12 02:24:45;;;;;;;6.30;3.50;;;22.90;99.90;;;;;;5049356;28;20180;-67
2023/09/12 02:27:10;;;;;;;4.45;3.17;;;22.80;99.90;;;;;;5043921;28;20170;-68
2023/09/12 02:29:40;;;;;;;5.00;3.67;;;22.80;99.90;;;;;;5043369;28;20252;-67
2023/09/12 02:32:06;;;;;;;6.15;3.78;;;22.70;99.90;;;;;;5045353;28;20261;-66
2023/09/12 02:34:32;;;;;;;3.90;3.35;;;22.60;99.90;;;;;;5051401;28;20257;-67
2023/09/12 02:37:00;;;;;;;3.67;3.22;;;22.60;99.90;;;;;;5054181;28;20193;-68
2023/09/12 02:39:28;;;;;;;5.53;3.53;;;22.60;99.90;;;;;;5046439;28;20278;-67
2023/09/12 02:41:56;;;;;;;4.63;3.72;;;22.50;99.90;;;;;;5051277;28;20240;-68
2023/09/12 02:44:22;;;;;;;4.25;3.35;;;22.50;99.90;;;;;;5042890;28;20285;-68
2023/09/12 02:46:51;;;;;;;5.68;3.08;;;22.50;99.90;;;;;;5045396;28;20265;-68
2023/09/12 02:49:16;;;;;;;4.85;3.63;;;22.50;99.90;;;;;;5063402;28;20281;-67
2023/09/12 02:51:45;;;;;;;4.95;3.67;;;22.50;99.90;;;;;;5048205;28;20287;-67
2023/09/12 02:54:15;;;;;;;5.13;3.63;;;22.50;99.90;;;;;;5043489;28;20191;-67
2023/09/12 02:56:42;;;;;;;4.15;3.60;;;22.40;99.90;;;;;;5049530;28;20190;-65
2023/09/12 02:59:08;;;;;;;5.38;3.92;;;22.40;99.90;;;;;;5048079;28;20209;-67
2023/09/12 03:01:36;;;;;;;5.40;4.22;;;22.40;99.90;;;;;;5051648;28;20178;-68
2023/09/12 03:04:02;;;;;;;5.13;4.03;;;22.40;99.90;;;;;;5046520;28;20177;-67
2023/09/12 03:06:29;;;;;;;5.57;4.15;;;22.40;99.90;;;;;;5046390;28;20208;-68
2023/09/12 03:08:56;;;;;;;5.65;4.18;;;22.40;99.90;;;;;;5045270;28;20178;-67
2023/09/12 03:11:22;;;;;;;6.82;4.60;;;22.30;99.90;;;;;;5042165;28;20269;-68
2023/09/12 03:13:48;;;;;;;5.32;4.45;;;22.30;99.90;;;;;;5053676;28;20450;-66
2023/09/12 03:16:14;;;;;;;6.97;4.28;;;22.30;99.90;;;;;;5050725;28;20190;-67
2023/09/12 03:18:40;;;;;;;5.22;4.15;;;22.30;99.90;;;;;;5040932;28;20288;-67
2023/09/12 03:21:08;;;;;;;5.30;3.88;;;22.30;99.90;;;;;;5045677;28;20256;-68
2023/09/12 03:23:34;;;;;;;5.35;4.13;;;22.20;99.90;;;;;;5050895;28;20178;-67
2023/09/12 03:26:04;;;;;;;5.50;4.05;;;22.20;99.90;;;;;;5048197;28;20316;-67
2023/09/12 03:28:30;;;;;;;6.15;4.07;;;22.20;99.90;;;;;;5051600;28;20188;-67
2023/09/12 03:31:12;;;;;;;5.47;4.28;;;22.20;99.90;;;;;;5043544;28;20181;-67
2023/09/12 03:33:41;;;;;;;4.72;4.10;;;22.20;99.90;;;;;;5041296;28;20292;-67
2023/09/12 03:36:07;;;;;;;8.80;4.97;;;22.20;99.90;;;;;;5063149;28;20216;-68
2023/09/12 03:38:33;;;;;;;6.55;4.68;;;22.10;99.90;;;;;;5045334;28;20215;-67
2023/09/12 03:41:00;;;;;;;6.75;5.03;;;22.10;99.90;;;;;;5047198;28;20193;-68
2023/09/12 03:43:27;;;;;;;6.57;5.30;;;22.10;99.90;;;;;;5044736;28;20541;-68
2023/09/12 03:45:58;;;;;;;6.38;4.85;;;22.00;99.90;;;;;;5039645;28;20170;-67
2023/09/12 03:48:23;;;;;;;6.07;5.18;;;22.00;99.90;;;;;;5040420;28;20209;-67
2023/09/12 03:50:51;;;;;;;7.43;5.80;;;21.90;99.90;;;;;;5054819;28;20185;-67
2023/09/12 03:53:22;;;;;;;8.65;5.50;;;21.80;99.90;;;;;;5050900;28;20193;-67
2023/09/12 03:55:48;;;;;;;7.63;5.28;;;21.80;99.90;;;;;;5048572;28;20193;-67
2023/09/12 03:58:13;;;;;;;6.28;4.85;;;21.70;99.90;;;;;;5039484;28;20174;-67
2023/09/12 04:00:39;;;;;;;6.18;5.28;;;21.70;99.90;;;;;;5054746;28;20256;-67
2023/09/12 04:03:05;;;;;;;6.30;5.45;;;21.70;99.90;;;;;;5043532;28;20228;-67
2023/09/12 04:05:30;;;;;;;6.05;5.35;;;21.60;99.90;;;;;;5047274;28;20189;-68
2023/09/12 04:07:56;;;;;;;7.07;5.20;;;21.60;99.90;;;;;;5046009;28;20185;-66
2023/09/12 04:10:22;;;;;;;9.07;5.05;;;21.60;99.90;;;;;;5051254;28;20178;-67
2023/09/12 04:12:47;;;;;;;6.50;5.35;;;21.60;99.90;;;;;;5043990;28;20240;-66
2023/09/12 04:15:13;;;;;;;5.80;4.97;;;21.50;99.90;;;;;;5049224;28;20189;-67
2023/09/12 04:17:39;;;;;;;6.03;5.07;;;21.50;99.90;;;;;;5049091;28;20231;-67
2023/09/12 04:20:05;;;;;;;6.85;4.93;;;21.50;99.90;;;;;;5044364;28;20209;-67
2023/09/12 04:22:33;;;;;;;6.65;5.05;;;21.40;99.90;;;;;;5041940;28;20201;-67
2023/09/12 04:24:58;;;;;;;6.85;4.82;;;21.40;99.90;;;;;;5038356;28;20174;-67
2023/09/12 04:27:24;;;;;;;5.90;4.32;;;21.40;99.90;;;;;;5046277;28;20235;-66
2023/09/12 04:29:51;;;;;;;6.07;4.47;;;21.40;99.90;;;;;;5046922;28;20177;-67
2023/09/12 04:32:23;;;;;;;6.30;4.35;;;21.50;99.90;;;;;;5050427;28;20177;-66
2023/09/12 04:34:51;;;;;;;6.40;4.95;;;21.40;99.90;;;;;;5049506;28;20260;-67
2023/09/12 04:37:17;;;;;;;7.20;5.40;;;21.40;99.90;;;;;;5047811;28;20205;-67
2023/09/12 04:39:45;;;;;;;6.18;5.10;;;21.40;99.90;;;;;;5049466;28;20222;-67
2023/09/12 04:42:11;;;;;;;5.82;4.68;;;21.40;99.90;;;;;;5041280;28;20205;-67
2023/09/12 04:44:41;;;;;;;6.55;4.40;;;21.40;99.90;;;;;;5048106;28;20205;-67
2023/09/12 04:47:08;;;;;;;6.57;4.90;;;21.50;99.90;;;;;;5043010;28;20165;-67
2023/09/12 04:49:33;;;;;;;5.72;4.90;;;21.40;99.90;;;;;;5048746;28;20173;-67
2023/09/12 04:52:02;;;;;;;7.03;5.13;;;21.50;99.90;;;;;;5046917;28;20349;-68
2023/09/12 04:54:30;;;;;;;6.93;5.28;;;21.50;99.90;;;;;;5050021;28;20192;-68
2023/09/12 04:56:55;;;;;;;8.15;5.20;;;21.50;99.90;;;;;;5063042;28;20306;-68
2023/09/12 04:59:23;;;;;;;5.68;4.75;;;21.50;99.90;;;;;;5038894;28;20416;-68
2023/09/12 05:01:49;;;;;;;5.60;4.85;;;21.60;99.90;;;;;;5041711;28;20267;-68
2023/09/12 05:04:14;;;;;;;5.38;4.35;;;21.60;99.90;;;;;;5042693;28;20222;-67
2023/09/12 05:06:42;;;;;;;8.95;5.47;;;21.70;99.90;;;;;;5043925;28;20280;-68
2023/09/12 05:09:09;;;;;;;6.57;5.22;;;21.70;99.90;;;;;;5048234;28;20177;-66
2023/09/12 05:11:36;;;;;;;6.20;5.03;;;21.70;99.90;;;;;;5039462;28;20174;-67
2023/09/12 05:14:05;;;;;;;8.80;5.38;;;21.70;99.90;;;;;;5060605;28;20204;-65
2023/09/12 05:16:31;;;;;;;6.88;4.97;;;21.70;99.90;;;;;;5047563;28;20178;-66
2023/09/12 05:18:59;;;;;;;8.27;5.10;;;21.70;99.90;;;;;;5046367;28;20201;-66
2023/09/12 05:21:24;;;;;;;7.68;5.50;;;21.70;99.90;;;;;;5047451;28;20296;-67
2023/09/12 05:23:52;;;;;;;7.90;5.35;;;21.60;99.90;;;;;;5044379;28;20256;-67
2023/09/12 05:26:18;;;;;;;7.75;5.57;;;21.60;99.90;;;;;;5045814;28;20306;-66
2023/09/12 05:28:43;;;;;;;7.75;5.35;;;21.60;99.90;;;;;;5045025;28;20451;-66
2023/09/12 05:31:09;;;;;;;8.77;5.38;;;21.50;99.90;;;;;;5045172;28;20332;-70
2023/09/12 05:33:37;;;;;;;9.68;5.47;;;21.50;99.90;;;;;;5048377;28;20220;-71
2023/09/12 05:36:03;;;;;;;7.80;5.45;;;21.40;99.90;;;;;;5048670;28;20173;-67
2023/09/12 05:38:28;;;;;;;8.63;6.05;;;21.40;99.90;;;;;;5040160;28;20212;-67
2023/09/12 05:40:56;;;;;;;6.45;5.70;;;21.40;99.90;;;;;;5048965;28;20201;-67
2023/09/12 05:43:22;;;;;;;9.32;6.20;;;21.40;99.90;;;;;;5049714;28;20216;-67
2023/09/12 05:45:48;;;;;;;8.38;5.75;;;21.40;99.90;;;;;;5054098;28;20170;-67
2023/09/12 05:48:13;;;;;;;7.82;5.55;;;21.30;99.90;;;;;;5053800;28;20247;-66
2023/09/12 05:50:39;;;;;;;6.75;5.20;;;21.40;99.90;;;;;;5053751;28;20165;-66
2023/09/12 05:53:05;;;;;;;7.20;6.07;;;21.40;99.90;;;;;;5054075;28;20233;-66
2023/09/12 05:55:30;;;;;;;6.60;5.47;;;21.40;99.90;;;;;;5053996;28;20464;-66
2023/09/12 05:57:56;;;;;;;7.15;5.28;;;21.40;99.90;;;;;;5053954;28;20268;-67
2023/09/12 06:00:25;;;;;;;7.78;6.03;;;21.40;99.90;;;;;;5053856;28;20213;-66
2023/09/12 06:02:51;;;;;;;7.38;5.47;;;21.50;99.90;;;;;;5053825;28;20169;-66
2023/09/12 06:05:17;;;;;;;9.23;5.03;;;21.50;99.90;;;;;;5054209;28;20223;-66
2023/09/12 06:07:47;;;;;;;6.30;5.55;;;21.60;99.90;;;;;;5053780;28;20201;-66
2023/09/12 06:10:15;;;;;;;7.97;5.43;;;21.60;99.90;;;;;;5053886;28;20220;-66
2023/09/12 06:12:40;;;;;;;7.93;5.43;;;21.70;99.90;;;;;;5053564;28;20174;-67
2023/09/12 06:15:06;;;;;;;8.52;5.53;;;21.70;99.90;;;;;;5053529;28;20441;-66
2023/09/12 06:17:32;;;;;;;6.57;5.15;;;21.70;99.90;;;;;;5053872;28;20181;-67
2023/09/12 06:20:01;;;;;;;5.93;5.28;;;21.80;99.90;;;;;;5053766;28;20293;-66
2023/09/12 06:22:29;;;;;;;10.48;5.60;;;21.90;99.90;;;;;;5051883;28;20177;-66
2023/09/12 06:24:54;;;;;;;9.25;5.63;;;21.90;99.90;;;;;;5042731;28;20184;-67
2023/09/12 06:27:22;;;;;;;6.95;5.95;;;22.00;99.90;;;;;;5044387;28;20455;-66
2023/09/12 06:29:49;;;;;;;7.75;6.03;;;22.00;99.90;;;;;;5047752;28;20173;-66
2023/09/12 06:32:18;;;;;;;7.22;5.72;;;22.00;99.90;;;;;;5040447;28;20334;-66
2023/09/12 06:34:47;;;;;;;9.85;6.35;;;22.10;99.90;;;;;;5048165;28;20193;-66
2023/09/12 06:37:14;;;;;;;7.07;6.07;;;22.20;99.90;;;;;;5045677;28;20185;-66
2023/09/12 06:39:39;;;;;;;10.48;5.97;;;22.20;99.90;;;;;;5051092;28;20294;-67
2023/09/12 06:42:05;;;;;;;8.32;6.60;;;22.20;99.90;;;;;;5043453;28;20224;-66
2023/09/12 06:44:31;;;;;;;7.75;6.03;;;22.20;99.90;;;;;;5049758;28;20244;-66
2023/09/12 06:46:57;;;;;;;7.82;6.10;;;22.20;99.90;;;;;;5051053;28;20204;-67
2023/09/12 06:49:25;;;;;;;8.52;6.47;;;22.30;99.90;;;;;;5050098;28;20263;-66
2023/09/12 06:51:55;;;;;;;7.72;6.00;;;22.30;99.90;;;;;;5055070;28;20178;-66
2023/09/12 06:54:21;;;;;;;8.73;5.90;;;22.40;99.90;;;;;;5048403;28;20197;-67
2023/09/12 06:56:46;;;;;;;7.47;5.55;;;22.50;99.90;;;;;;5044826;28;20222;-66
2023/09/12 06:59:12;;;;;;;6.10;5.47;;;22.50;99.90;;;;;;5039428;28;20206;-66
2023/09/12 07:01:38;;;;;;;7.53;5.68;;;22.60;99.90;;;;;;5044587;28;20214;-66
2023/09/12 07:04:03;;;;;;;6.07;5.47;;;22.70;99.90;;;;;;5054296;28;20177;-66
2023/09/12 07:06:29;;;;;;;6.47;5.45;;;22.70;99.90;;;;;;5051234;28;20201;-66
2023/09/12 07:08:57;;;;;;;7.05;5.45;;;22.80;99.90;;;;;;5048646;28;20188;-65
2023/09/12 07:11:24;;;;;;;5.85;5.25;;;22.90;99.90;;;;;;5045051;28;20174;-66
2023/09/12 07:13:49;;;;;;;9.50;5.75;;;23.00;99.90;;;;;;5045303;28;20209;-66
2023/09/12 07:16:15;;;;;;;6.65;5.55;;;23.00;99.90;;;;;;5051888;28;20198;-65
2023/09/12 07:18:41;;;;;;;5.38;4.80;;;23.20;99.90;;;;;;5053478;28;20266;-66
2023/09/12 07:21:06;;;;;;;6.75;5.18;;;23.20;99.90;;;;;;5053389;28;20173;-66
2023/09/12 07:23:32;;;;;;;6.25;5.00;;;23.30;99.90;;;;;;5053516;28;20274;-66
2023/09/12 07:26:02;;;;;;;5.57;4.78;;;23.40;99.90;;;;;;5051650;28;20281;-66
2023/09/12 07:28:30;;;;;;;6.93;4.63;;;23.50;99.90;;;;;;5048846;28;20182;-66
2023/09/12 07:30:58;;;;;;;5.20;4.68;;;23.50;99.90;;;;;;5048745;28;20213;-66
2023/09/12 07:33:26;;;;;;;5.38;4.43;;;23.70;99.90;;;;;;5048389;28;20307;-66
2023/09/12 07:35:53;;;;;;;9.48;5.55;;;23.70;99.90;;;;;;5046071;28;20177;-66
2023/09/12 07:38:20;;;;;;;7.18;5.97;;;23.90;99.90;;;;;;5043580;28;20223;-66
2023/09/12 07:40:45;;;;;;;8.27;7.05;;;23.90;99.90;;;;;;5043814;28;20178;-66
2023/09/12 07:43:11;;;;;;;7.45;5.55;;;24.00;99.90;;;;;;5037356;28;20178;-66
2023/09/12 07:45:37;;;;;;;6.28;5.15;;;24.10;99.90;;;;;;5055637;28;20170;-66
2023/09/12 07:48:08;;;;;;;5.43;4.82;;;24.20;99.90;;;;;;5055870;28;20169;-66
2023/09/12 07:50:34;;;;;;;5.47;4.55;;;24.30;99.90;;;;;;5056747;28;20193;-66
2023/09/12 07:52:59;;;;;;;5.68;4.15;;;24.30;99.90;;;;;;5055733;28;20183;-66
2023/09/12 07:55:36;;;;;;;5.85;4.30;;;24.40;99.90;;;;;;5056034;28;20260;-66
2023/09/12 07:58:02;;;;;;;7.13;6.07;;;24.40;99.90;;;;;;5055296;28;20192;-66
2023/09/12 08:00:28;;;;;;;6.80;5.20;;;24.50;99.90;;;;;;5055598;28;20201;-67
2023/09/12 08:02:56;;;;;;;5.72;4.78;;;24.50;99.90;;;;;;5055486;28;20184;-66
2023/09/12 08:05:21;;;;;;;6.05;5.00;;;24.60;99.90;;;;;;5055621;28;20166;-66
2023/09/12 08:07:47;;;;;;;6.75;4.70;;;24.60;99.90;;;;;;5055291;28;20180;-66
2023/09/12 08:10:13;;;;;;;5.95;4.72;;;24.60;99.90;;;;;;5055623;28;20239;-65
2023/09/12 08:12:41;;;;;;;5.07;4.30;;;24.70;99.90;;;;;;5050443;28;20205;-66
2023/09/12 08:15:10;;;;;;;5.60;4.40;;;24.70;99.90;;;;;;5055146;28;20177;-66
2023/09/12 08:17:36;;;;;;;5.40;4.53;;;24.70;99.90;;;;;;5050158;28;20200;-66
2023/09/12 08:20:03;;;;;;;7.55;4.38;;;24.70;99.90;;;;;;5050997;28;20204;-66
2023/09/12 08:22:29;;;;;;;5.50;4.43;;;24.70;99.90;;;;;;5061609;28;20420;-66
2023/09/12 08:24:57;;;;;;;6.05;4.47;;;24.80;99.90;;;;;;5049483;28;20203;-66
2023/09/12 08:27:23;;;;;;;5.72;4.63;;;24.80;99.90;;;;;;5046239;28;20178;-66
2023/09/12 08:29:49;;;;;;;6.88;5.10;;;24.80;99.90;;;;;;5065026;28;20252;-66
2023/09/12 08:32:14;;;;;;;5.88;4.85;;;24.90;99.90;;;;;;5048349;28;20197;-66
2023/09/12 08:34:40;;;;;;;6.75;4.90;;;24.90;99.90;;;;;;5044639;28;20189;-66
2023/09/12 08:37:06;;;;;;;5.25;4.70;;;24.90;99.90;;;;;;5049688;28;20174;-65
2023/09/12 08:39:43;;;;;;;6.82;5.20;;;25.00;99.90;;;;;;5048869;28;20205;-65
2023/09/12 08:42:13;;;;;;;6.35;5.00;;;25.10;99.90;;;;;;5048941;28;20166;-66
2023/09/12 08:44:40;;;;;;;6.07;5.40;;;25.10;99.90;;;;;;5048006;28;20264;-66
2023/09/12 08:47:10;;;;;;;5.43;4.88;;;25.20;99.90;;;;;;5045986;28;20189;-66
2023/09/12 08:49:42;;;;;;;6.68;5.15;;;25.20;99.90;;;;;;5049527;28;20205;-66
2023/09/12 08:52:08;;;;;;;7.32;4.97;;;25.20;99.90;;;;;;5046935;28;20197;-66
2023/09/12 08:54:33;;;;;;;7.13;4.93;;;25.20;99.90;;;;;;5042099;28;21533;-66
2023/09/12 08:57:03;;;;;;;6.18;5.28;;;25.30;99.90;;;;;;5047581;28;20178;-67
2023/09/12 08:59:33;;;;;;;6.90;5.03;;;25.40;99.90;;;;;;5051070;28;20210;-66
2023/09/12 09:01:59;;;;;;;7.80;5.07;;;25.40;99.90;;;;;;5036193;28;20174;-67
2023/09/12 09:04:31;;;;;;;10.48;4.85;;;25.50;99.90;;;;;;5052055;28;20187;-67
2023/09/12 09:06:59;;;;;;;6.93;5.20;;;25.50;99.90;;;;;;5047279;28;20189;-67
2023/09/12 09:09:29;;;;;;;6.00;4.63;;;25.60;99.90;;;;;;5045166;28;20178;-66
2023/09/12 09:11:55;;;;;;;6.10;4.78;;;25.70;99.90;;;;;;5040824;28;20276;-67
2023/09/12 09:14:21;;;;;;;5.07;4.55;;;25.70;99.90;;;;;;5051377;28;20200;-67
2023/09/12 09:16:46;;;;;;;5.80;4.80;;;25.80;99.90;;;;;;5047579;28;20177;-67
2023/09/12 09:19:12;;;;;;;6.68;5.03;;;25.90;99.90;;;;;;5049121;28;21765;-67
2023/09/12 09:21:40;;;;;;;9.90;5.35;;;26.00;99.90;;;;;;5041844;28;20166;-66
2023/09/12 09:24:11;;;;;;;7.90;4.88;;;26.00;99.90;;;;;;5051722;28;20180;-67
2023/09/12 09:26:50;;;;;;;5.82;5.22;;;26.10;99.90;;;;;;5044729;28;20197;-67
2023/09/12 09:29:18;;;;;;;5.28;4.68;;;26.10;99.90;;;;;;5044992;28;20173;-67
2023/09/12 09:31:45;;;;;;;8.80;5.28;;;26.10;99.90;;;;;;5042263;28;20264;-66
2023/09/12 09:34:17;;;;;;;5.22;4.40;;;26.10;99.90;;;;;;5047490;28;20196;-66
2023/09/12 09:36:51;;;;;;;5.97;4.70;;;26.20;99.90;;;;;;5050685;28;20184;-67
2023/09/12 09:39:18;;;;;;;5.80;5.00;;;26.20;99.90;;;;;;5045652;28;20196;-67
2023/09/12 09:41:54;;;;;;;5.25;4.05;;;26.30;99.90;;;;;;5050250;28;20205;-67
2023/09/12 09:44:26;;;;;;;7.78;4.40;;;26.30;99.90;;;;;;5054404;28;20161;-68
2023/09/12 09:47:02;;;;;;;6.80;4.68;;;26.30;99.90;;;;;;5054075;28;20193;-67
2023/09/12 09:49:34;;;;;;;5.28;4.28;;;26.40;99.90;;;;;;5053878;28;20205;-67
2023/09/12 09:52:02;;;;;;;5.53;4.28;;;26.50;99.90;;;;;;5054136;28;20230;-67
2023/09/12 09:54:28;;;;;;;4.88;4.25;;;26.70;99.90;;;;;;5054113;28;20266;-68
2023/09/12 09:56:56;;;;;;;5.13;4.63;;;27.00;99.90;;;;;;5053952;28;20177;-68
2023/09/12 09:59:23;;;;;;;5.63;4.97;;;27.40;99.90;;;;;;5054180;28;20225;-68
2023/09/12 10:01:51;;;;;;;5.90;4.53;;;27.70;99.90;;;;;;5033982;28;20222;-68
2023/09/12 10:04:18;;;;;;;6.45;5.13;;;27.90;99.90;;;;;;5033915;28;20454;-68
2023/09/12 10:06:46;;;;;;;6.13;5.15;;;28.10;99.90;;;;;;5034237;28;20178;-67
2023/09/12 10:09:18;;;;;;;6.60;5.78;;;28.50;99.90;;;;;;5035902;28;20266;-68
2023/09/12 10:11:49;;;;;;;6.05;5.35;;;28.90;99.90;;;;;;5042557;28;20181;-68
2023/09/12 10:14:19;;;;;;;6.28;5.68;;;29.20;99.90;;;;;;5049459;28;20217;-68
2023/09/12 10:16:48;;;;;;;8.48;5.10;;;29.50;99.90;;;;;;5047423;28;20192;-68
2023/09/12 10:19:24;;;;;;;5.80;5.22;;;29.70;99.90;;;;;;5066454;28;20227;-65
2023/09/12 10:22:06;;;;;;;7.70;5.90;;;29.90;99.90;;;;;;5046710;28;20235;-65
2023/09/12 10:24:34;;;;;;;6.63;5.93;;;30.00;99.90;;;;;;5045712;28;20178;-66
2023/09/12 10:27:01;;;;;;;6.88;5.97;;;30.10;99.90;;;;;;5039613;28;20222;-66
2023/09/12 10:29:31;;;;;;;6.35;5.68;;;30.20;99.90;;;;;;5053663;28;20177;-66
2023/09/12 10:31:57;;;;;;;6.72;5.47;;;30.20;99.90;;;;;;5052652;28;20265;-67
2023/09/12 10:34:25;;;;;;;7.88;6.00;;;30.20;99.90;;;;;;5047389;28;20300;-66
2023/09/12 10:36:52;;;;;;;7.13;5.72;;;30.10;99.90;;;;;;5050511;28;20169;-66
2023/09/12 10:39:19;;;;;;;7.55;5.90;;;30.00;99.90;;;;;;5047660;28;20197;-66
2023/09/12 10:41:46;;;;;;;10.27;5.70;;;29.80;99.90;;;;;;5044171;28;20279;-65
2023/09/12 10:44:21;;;;;;;5.82;5.32;;;29.60;99.90;;;;;;5043174;28;20259;-66
2023/09/12 10:46:49;;;;;;;6.18;5.10;;;29.50;99.90;;;;;;5045396;28;20177;-66
2023/09/12 10:49:16;;;;;;;6.20;5.38;;;29.60;99.90;;;;;;5044489;28;20205;-66
2023/09/12 10:51:43;;;;;;;5.72;5.18;;;29.60;99.90;;;;;;5045476;28;20213;-66
2023/09/12 10:54:12;;;;;;;6.65;5.25;;;29.80;99.90;;;;;;5048269;28;20219;-66
2023/09/12 10:56:40;;;;;;;5.63;5.07;;;30.00;99.90;;;;;;5047529;28;20196;-67
2023/09/12 10:59:06;;;;;;;5.53;5.03;;;30.30;99.90;;;;;;5050737;28;20212;-67
2023/09/12 11:01:33;;;;;;;7.30;5.50;;;30.40;99.90;;;;;;5051287;28;20173;-68
2023/09/12 11:04:20;;;;;;;5.57;4.90;;;30.60;99.90;;;;;;5052017;28;20176;-67
2023/09/12 11:06:50;;;;;;;7.13;5.25;;;30.90;99.90;;;;;;5050494;28;20173;-68
2023/09/12 11:09:22;;;;;;;5.45;4.85;;;31.20;99.90;;;;;;5061328;28;20283;-66
2023/09/12 11:12:02;;;;;;;6.43;4.90;;;31.40;99.90;;;;;;5051619;28;20191;-68
2023/09/12 11:14:29;;;;;;;5.82;4.47;;;31.60;99.90;;;;;;5040435;28;20200;-67
2023/09/12 11:17:07;;;;;;;6.13;4.57;;;31.70;99.90;;;;;;5048836;28;20477;-66
2023/09/12 11:19:49;;;;;;;5.03;4.50;;;31.70;99.90;;;;;;5049336;28;20197;-68
2023/09/12 11:22:44;;;;;;;5.45;4.90;;;31.60;99.90;;;;;;5045974;28;20238;-67
2023/09/12 11:25:25;;;;;;;6.90;5.13;;;31.60;99.90;;;;;;5048417;28;20195;-67
2023/09/12 11:27:51;;;;;;;6.78;4.57;;;31.60;99.90;;;;;;5053720;28;20165;-67
2023/09/12 11:30:21;;;;;;;5.00;4.50;;;31.70;99.90;;;;;;5051800;28;20250;-67
2023/09/12 11:32:50;;;;;;;5.75;4.60;;;31.70;99.90;;;;;;5049537;28;20211;-67
2023/09/12 11:35:21;;;;;;;4.80;4.22;;;31.80;99.90;;;;;;5052977;28;20178;-67
2023/09/12 11:37:53;;;;;;;4.90;4.40;;;31.80;99.90;;;;;;5047058;28;20173;-67
2023/09/12 11:40:41;;;;;;;5.18;4.13;;;31.70;99.90;;;;;;5052117;28;20196;-67
2023/09/12 11:43:08;;;;;;;5.22;4.57;;;31.70;99.90;;;;;;5055200;28;20204;-67
2023/09/12 11:45:33;;;;;;;5.65;4.30;;;31.80;99.90;;;;;;5056116;28;20176;-67
2023/09/12 11:48:03;;;;;;;5.18;4.43;;;31.70;99.90;;;;;;5056053;28;20173;-67
2023/09/12 11:50:41;;;;;;;4.53;3.85;;;31.80;99.90;;;;;;5055614;28;20472;-67
2023/09/12 11:53:08;;;;;;;4.70;4.30;;;31.80;99.90;;;;;;5056026;28;20299;-67
2023/09/12 11:55:42;;;;;;;4.85;4.18;;;31.80;99.90;;;;;;5055768;28;20199;-67
2023/09/12 11:58:08;;;;;;;5.32;4.65;;;31.80;99.90;;;;;;5055466;28;20266;-67
2023/09/12 12:00:34;;;;;;;4.28;3.88;;;31.90;99.90;;;;;;5055701;28;20354;-68
2023/09/12 12:03:03;;;;;;;4.95;4.28;;;31.90;99.90;;;;;;5055641;28;20169;-67
2023/09/12 12:05:34;;;;;;;4.43;3.83;;;31.90;99.90;;;;;;5055977;28;20183;-67
2023/09/12 12:08:00;;;;;;;4.72;3.90;;;31.90;99.90;;;;;;5055807;28;20189;-68
2023/09/12 12:10:28;;;;;;;6.10;4.20;;;31.90;99.90;;;;;;5055280;28;20376;-68
2023/09/12 12:12:54;;;;;;;4.80;4.05;;;31.90;99.90;;;;;;5047710;28;20342;-68
2023/09/12 12:15:20;;;;;;;4.70;3.70;;;31.90;99.90;;;;;;5050034;28;20219;-67
2023/09/12 12:17:48;;;;;;;4.50;3.88;;;31.90;99.90;;;;;;5040610;28;20232;-66
2023/09/12 12:20:16;;;;;;;4.60;4.10;;;31.90;99.90;;;;;;5063177;28;20212;-67
2023/09/12 12:22:44;;;;;;;5.32;3.55;;;31.90;99.90;;;;;;5051029;28;20215;-68
2023/09/12 12:25:14;;;;;;;4.30;3.70;;;31.80;99.90;;;;;;5048268;28;20256;-67
2023/09/12 12:27:42;;;;;;;4.15;3.15;;;31.80;99.90;;;;;;5049755;28;20184;-67
2023/09/12 12:30:11;;;;;;;4.00;3.38;;;31.70;99.90;;;;;;5047483;28;20184;-67
2023/09/12 12:32:41;;;;;;;4.45;3.38;;;31.70;99.90;;;;;;5043465;28;20185;-67
2023/09/12 12:35:08;;;;;;;3.35;3.05;;;31.80;99.90;;;;;;5042959;28;20525;-67
2023/09/12 12:37:34;;;;;;;4.15;3.10;;;31.80;99.90;;;;;;5047417;28;20200;-68
2023/09/12 12:40:00;;;;;;;3.63;3.05;;;31.80;99.90;;;;;;5051130;28;20271;-65
2023/09/12 12:42:34;;;;;;;3.17;2.85;;;31.70;99.90;;;;;;5050654;28;20176;-67
2023/09/12 12:44:59;;;;;;;3.33;3.03;;;31.70;99.90;;;;;;5049723;28;20218;-68
2023/09/12 12:47:25;;;;;;;3.40;3.10;;;31.70;99.90;;;;;;5051591;28;20177;-67
2023/09/12 12:49:56;;;;;;;4.93;3.88;;;31.70;99.90;;;;;;5049371;28;20189;-66